createdAt,value
2022-12-31T00:04:48.736Z,83.86
2022-12-31T00:09:48.577Z,83.80
2022-12-31T00:14:48.973Z,83.78
2022-12-31T00:19:48.635Z,84.00
2022-12-31T00:24:48.660Z,84.07
2022-12-31T00:29:48.638Z,84.09
2022-12-31T00:34:48.684Z,84.09
2022-12-31T00:44:49.019Z,84.36
2022-12-31T00:49:48.656Z,84.36
2022-12-31T00:54:48.811Z,84.48
2022-12-31T01:09:48.955Z,84.69
2022-12-31T01:14:48.870Z,84.99
2022-12-31T01:24:49.190Z,85.18
2022-12-31T01:29:48.782Z,85.15
2022-12-31T01:34:49.100Z,85.20
2022-12-31T01:39:48.882Z,84.93
2022-12-31T01:54:54.769Z,85.59
2022-12-31T01:59:49.590Z,85.71
2022-12-31T02:04:53.582Z,86.01
2022-12-31T02:09:49.295Z,85.77
2022-12-31T02:14:52.840Z,86.63
2022-12-31T02:20:08.355Z,87.00
2022-12-31T02:25:02.180Z,86.92
2022-12-31T02:29:59.650Z,87.16
2022-12-31T02:34:53.275Z,87.09
2022-12-31T02:39:50.101Z,86.41
2022-12-31T02:44:49.163Z,87.16
2022-12-31T02:50:00.910Z,87.01
2022-12-31T02:54:58.205Z,86.95
2022-12-31T03:00:06.124Z,87.22
2022-12-31T03:04:51.704Z,87.11
2022-12-31T03:09:49.533Z,86.71
2022-12-31T03:14:49.357Z,87.42
2022-12-31T03:19:59.236Z,87.68
2022-12-31T03:24:59.131Z,87.81
2022-12-31T03:29:49.510Z,88.04
2022-12-31T03:39:49.391Z,87.10
2022-12-31T03:44:49.195Z,87.88
2022-12-31T03:49:49.451Z,87.93
2022-12-31T03:54:49.380Z,87.92
2022-12-31T03:59:49.528Z,87.89
2022-12-31T04:09:49.407Z,87.62
2022-12-31T04:19:49.382Z,88.54
2022-12-31T04:24:49.289Z,88.47
2022-12-31T04:29:49.840Z,88.84
2022-12-31T04:34:49.333Z,89.09
2022-12-31T04:39:49.386Z,87.65
2022-12-31T04:44:49.320Z,89.55
2022-12-31T04:49:49.558Z,90.10
2022-12-31T04:54:49.328Z,90.12
2022-12-31T04:59:49.705Z,90.57
2022-12-31T05:04:49.526Z,91.48
2022-12-31T05:09:49.506Z,89.50
2022-12-31T05:14:49.415Z,91.20
2022-12-31T05:19:49.520Z,91.11
2022-12-31T05:24:51.295Z,91.79
2022-12-31T05:29:50.027Z,92.64
2022-12-31T05:34:49.685Z,92.43
2022-12-31T05:39:49.772Z,90.17
2022-12-31T05:44:49.644Z,91.73
2022-12-31T05:49:49.662Z,91.29
2022-12-31T05:54:49.474Z,91.78
2022-12-31T05:59:52.449Z,91.96
2022-12-31T06:04:49.913Z,92.23
2022-12-31T06:09:49.890Z,90.17
2022-12-31T06:14:49.558Z,92.52
2022-12-31T06:19:49.608Z,93.55
2022-12-31T06:24:49.927Z,93.85
2022-12-31T06:29:50.154Z,94.45
2022-12-31T06:34:49.689Z,94.11
2022-12-31T06:39:49.802Z,90.66
2022-12-31T06:44:49.608Z,92.35
2022-12-31T06:49:49.725Z,92.71
2022-12-31T06:54:50.569Z,93.38
2022-12-31T06:59:50.224Z,92.51
2022-12-31T07:05:09.642Z,92.15
2022-12-31T07:09:56.586Z,89.95
2022-12-31T07:14:57.225Z,90.80
2022-12-31T07:19:59.886Z,90.99
2022-12-31T07:24:50.089Z,91.05
2022-12-31T07:30:00.777Z,90.80
2022-12-31T07:34:58.429Z,90.43
2022-12-31T07:40:02.310Z,88.52
2022-12-31T07:44:57.902Z,89.73
2022-12-31T07:49:50.909Z,90.24
2022-12-31T07:54:50.073Z,91.45
2022-12-31T07:59:59.658Z,92.98
2022-12-31T08:04:57.347Z,92.62
2022-12-31T08:14:50.253Z,91.48
2022-12-31T08:19:50.437Z,91.64
2022-12-31T08:25:03.213Z,91.91
2022-12-31T08:40:02.568Z,90.33
2022-12-31T08:54:50.743Z,92.03
2022-12-31T09:00:01.381Z,92.64
2022-12-31T09:04:59.214Z,92.42
2022-12-31T09:09:58.434Z,90.95
2022-12-31T09:19:50.612Z,92.65
2022-12-31T09:24:50.888Z,92.33
2022-12-31T09:29:56.471Z,92.72
2022-12-31T09:34:55.859Z,92.16
2022-12-31T09:39:50.426Z,90.54
2022-12-31T09:45:09.345Z,91.39
2022-12-31T09:50:11.589Z,91.52
2022-12-31T09:54:54.298Z,91.27
2022-12-31T09:59:57.214Z,90.85
2022-12-31T10:05:00.543Z,90.47
2022-12-31T10:10:02.350Z,89.25
2022-12-31T10:15:07.992Z,90.17
2022-12-31T10:29:57.806Z,89.89
2022-12-31T10:35:00.068Z,89.73
2022-12-31T10:40:02.483Z,88.72
2022-12-31T10:50:10.201Z,89.60
2022-12-31T10:55:10.101Z,89.38
2022-12-31T11:00:06.537Z,89.75
2022-12-31T11:05:10.157Z,89.75
2022-12-31T11:15:10.243Z,90.13
2022-12-31T11:20:00.340Z,90.17
2022-12-31T11:25:05.298Z,90.33
2022-12-31T11:30:00.677Z,90.74
2022-12-31T11:40:03.281Z,89.76
2022-12-31T11:44:57.947Z,90.99
2022-12-31T11:50:02.831Z,91.57
2022-12-31T11:55:01.574Z,91.70
2022-12-31T11:59:55.710Z,92.10
2022-12-31T12:04:52.314Z,91.67
2022-12-31T12:09:53.585Z,90.29
2022-12-31T12:14:52.991Z,91.73
2022-12-31T12:24:53.893Z,92.00
2022-12-31T12:29:50.575Z,92.09
2022-12-31T12:34:51.600Z,92.18
2022-12-31T12:39:56.325Z,90.53
2022-12-31T12:45:00.671Z,91.67
2022-12-31T12:49:53.968Z,92.19
2022-12-31T12:55:04.266Z,92.08
2022-12-31T13:00:03.389Z,92.28
2022-12-31T13:05:05.830Z,92.36
2022-12-31T13:10:07.325Z,91.21
2022-12-31T13:14:58.762Z,92.10
2022-12-31T13:29:53.133Z,92.35
2022-12-31T13:34:57.116Z,91.94
2022-12-31T13:40:00.364Z,90.64
2022-12-31T13:49:56.685Z,92.37
2022-12-31T13:54:56.926Z,92.97
2022-12-31T13:59:56.202Z,93.03
2022-12-31T14:04:57.596Z,93.11
2022-12-31T14:09:51.656Z,91.18
2022-12-31T14:14:58.747Z,92.49
2022-12-31T14:19:59.680Z,92.69
2022-12-31T14:24:51.523Z,92.92
2022-12-31T14:29:55.169Z,92.94
2022-12-31T14:35:00.157Z,92.18
2022-12-31T14:39:57.028Z,90.45
2022-12-31T14:45:03.349Z,91.92
2022-12-31T14:50:03.050Z,92.17
2022-12-31T14:55:02.541Z,91.84
2022-12-31T15:15:05.278Z,91.43
2022-12-31T15:20:01.551Z,91.45
2022-12-31T15:24:51.608Z,91.76
2022-12-31T15:29:51.222Z,91.48
2022-12-31T15:35:01.047Z,91.28
2022-12-31T15:39:51.353Z,90.50
2022-12-31T15:44:58.426Z,90.96
2022-12-31T15:54:55.558Z,90.90
2022-12-31T15:59:57.151Z,90.99
2022-12-31T16:04:52.103Z,91.45
2022-12-31T16:14:53.296Z,90.87
2022-12-31T16:19:51.490Z,91.16
2022-12-31T16:25:29.114Z,91.07
2022-12-31T16:29:59.492Z,91.09
2022-12-31T16:34:53.789Z,91.13
2022-12-31T16:40:11.164Z,90.15
2022-12-31T16:44:53.056Z,90.75
2022-12-31T16:50:03.015Z,90.99
2022-12-31T16:54:52.504Z,91.02
2022-12-31T16:59:53.892Z,91.16
2022-12-31T17:04:55.937Z,91.12
2022-12-31T17:10:01.316Z,90.29
2022-12-31T17:14:51.359Z,91.09
2022-12-31T17:19:56.843Z,91.28
2022-12-31T17:24:57.849Z,91.34
2022-12-31T17:34:51.723Z,90.89
2022-12-31T17:39:53.390Z,90.16
2022-12-31T17:49:52.778Z,90.65
2022-12-31T17:54:51.452Z,90.63
2022-12-31T17:59:51.809Z,90.69
2022-12-31T18:04:52.185Z,90.77
2022-12-31T18:09:51.626Z,89.88
2022-12-31T18:14:51.592Z,91.00
2022-12-31T18:20:04.872Z,90.70
2022-12-31T18:34:52.047Z,90.86
2022-12-31T18:39:51.620Z,90.11
2022-12-31T18:44:51.593Z,91.03
2022-12-31T18:59:51.713Z,91.85
2022-12-31T19:09:58.171Z,90.63
2022-12-31T19:14:51.854Z,91.87
2022-12-31T19:19:51.849Z,92.32
2022-12-31T19:24:51.802Z,92.45
2022-12-31T19:29:51.797Z,92.96
2022-12-31T19:39:51.825Z,91.72
2022-12-31T19:44:51.871Z,92.51
2022-12-31T19:49:51.800Z,92.88
2022-12-31T19:54:51.836Z,92.80
2022-12-31T19:59:51.948Z,92.70
2022-12-31T20:04:51.841Z,92.27
2022-12-31T20:09:51.922Z,90.31
2022-12-31T20:14:51.951Z,91.03
2022-12-31T20:34:51.966Z,90.33
2022-12-31T20:39:51.936Z,89.54
2022-12-31T20:44:52.141Z,89.87
2022-12-31T20:50:11.127Z,89.89
2022-12-31T20:59:52.100Z,89.61
2022-12-31T21:04:52.184Z,89.13
2022-12-31T21:09:52.184Z,88.82
2022-12-31T21:14:52.034Z,88.23
2022-12-31T21:19:52.001Z,86.37
2022-12-31T21:24:52.253Z,85.74
2022-12-31T21:35:31.140Z,85.92
2022-12-31T21:39:52.393Z,86.70
2022-12-31T21:44:52.280Z,85.26
2022-12-31T21:49:52.097Z,84.19
2022-12-31T21:55:03.776Z,84.56
2022-12-31T22:00:39.457Z,84.12
2022-12-31T22:05:03.097Z,84.06
2022-12-31T22:09:52.376Z,85.59
2022-12-31T22:15:14.932Z,84.33
2022-12-31T22:20:17.555Z,84.72
2022-12-31T22:24:52.610Z,84.46
2022-12-31T22:29:52.246Z,84.84
2022-12-31T22:34:52.932Z,84.51
2022-12-31T22:44:52.569Z,84.91
2022-12-31T22:49:52.351Z,84.43
2022-12-31T22:54:52.429Z,83.83
2022-12-31T22:59:52.672Z,83.55
2022-12-31T23:04:52.442Z,83.52
2022-12-31T23:15:02.369Z,83.68
2022-12-31T23:20:02.259Z,84.27
2022-12-31T23:24:52.930Z,84.49
2022-12-31T23:29:52.576Z,83.98
2022-12-31T23:34:54.701Z,84.31
2022-12-31T23:39:52.827Z,85.04
2022-12-31T23:44:52.417Z,85.34
2022-12-31T23:49:52.728Z,83.36
2022-12-31T23:54:52.684Z,85.02
2022-12-31T23:59:52.522Z,85.37
